sensor_id;sensor_type;location;lat;lon;timestamp;pressure;altitude;pressure_sealevel;temperature
5571;BMP180;2808;51.240;6.794;2024-02-15T00:01:23;101306.00;;;12.20
5571;BMP180;2808;51.240;6.794;2024-02-15T00:03:50;101305.00;;;12.20
5571;BMP180;2808;51.240;6.794;2024-02-15T00:06:20;101302.00;;;12.20
5571;BMP180;2808;51.240;6.794;2024-02-15T00:08:49;101301.00;;;12.20
5571;BMP180;2808;51.240;6.794;2024-02-15T00:11:18;101299.00;;;12.20
5571;BMP180;2808;51.240;6.794;2024-02-15T00:13:45;101304.00;;;12.20
5571;BMP180;2808;51.240;6.794;2024-02-15T00:16:14;101304.00;;;12.20
5571;BMP180;2808;51.240;6.794;2024-02-15T00:18:41;101298.00;;;12.20
5571;BMP180;2808;51.240;6.794;2024-02-15T00:21:09;101303.00;;;12.20
5571;BMP180;2808;51.240;6.794;2024-02-15T00:23:37;101296.00;;;12.20
5571;BMP180;2808;51.240;6.794;2024-02-15T00:26:07;101303.00;;;12.20
5571;BMP180;2808;51.240;6.794;2024-02-15T00:28:37;101310.00;;;12.20
5571;BMP180;2808;51.240;6.794;2024-02-15T00:31:05;101309.00;;;12.20
5571;BMP180;2808;51.240;6.794;2024-02-15T00:33:32;101315.00;;;12.20
5571;BMP180;2808;51.240;6.794;2024-02-15T00:36:00;101303.00;;;12.20
5571;BMP180;2808;51.240;6.794;2024-02-15T00:38:28;101299.00;;;12.30
5571;BMP180;2808;51.240;6.794;2024-02-15T00:40:55;101302.00;;;12.20
5571;BMP180;2808;51.240;6.794;2024-02-15T00:43:24;101305.00;;;12.30
5571;BMP180;2808;51.240;6.794;2024-02-15T00:45:52;101298.00;;;12.20
5571;BMP180;2808;51.240;6.794;2024-02-15T00:48:19;101298.00;;;12.20
5571;BMP180;2808;51.240;6.794;2024-02-15T00:50:48;101297.00;;;12.20
5571;BMP180;2808;51.240;6.794;2024-02-15T00:53:15;101301.00;;;12.20
5571;BMP180;2808;51.240;6.794;2024-02-15T00:55:43;101301.00;;;12.20
5571;BMP180;2808;51.240;6.794;2024-02-15T00:58:10;101300.00;;;12.20
5571;BMP180;2808;51.240;6.794;2024-02-15T01:00:39;101290.00;;;12.20
5571;BMP180;2808;51.240;6.794;2024-02-15T01:03:06;101305.00;;;12.20
5571;BMP180;2808;51.240;6.794;2024-02-15T01:05:34;101298.00;;;12.20
5571;BMP180;2808;51.240;6.794;2024-02-15T01:08:02;101301.00;;;12.30
5571;BMP180;2808;51.240;6.794;2024-02-15T01:10:29;101291.00;;;12.30
5571;BMP180;2808;51.240;6.794;2024-02-15T01:12:57;101290.00;;;12.20
5571;BMP180;2808;51.240;6.794;2024-02-15T01:15:24;101279.00;;;12.30
5571;BMP180;2808;51.240;6.794;2024-02-15T01:17:53;101280.00;;;12.30
5571;BMP180;2808;51.240;6.794;2024-02-15T01:20:20;101286.00;;;12.30
5571;BMP180;2808;51.240;6.794;2024-02-15T01:22:48;101285.00;;;12.30
5571;BMP180;2808;51.240;6.794;2024-02-15T01:25:16;101285.00;;;12.30
5571;BMP180;2808;51.240;6.794;2024-02-15T01:27:44;101278.00;;;12.30
5571;BMP180;2808;51.240;6.794;2024-02-15T01:30:12;101283.00;;;12.30
5571;BMP180;2808;51.240;6.794;2024-02-15T01:32:39;101281.00;;;12.30
5571;BMP180;2808;51.240;6.794;2024-02-15T01:35:09;101284.00;;;12.20
5571;BMP180;2808;51.240;6.794;2024-02-15T01:37:37;101284.00;;;12.20
5571;BMP180;2808;51.240;6.794;2024-02-15T01:40:05;101277.00;;;12.20
5571;BMP180;2808;51.240;6.794;2024-02-15T01:42:33;101283.00;;;12.20
5571;BMP180;2808;51.240;6.794;2024-02-15T01:45:02;101273.00;;;12.20
5571;BMP180;2808;51.240;6.794;2024-02-15T01:47:31;101271.00;;;12.20
5571;BMP180;2808;51.240;6.794;2024-02-15T01:49:58;101267.00;;;12.20
5571;BMP180;2808;51.240;6.794;2024-02-15T01:52:28;101275.00;;;12.20
5571;BMP180;2808;51.240;6.794;2024-02-15T01:54:56;101268.00;;;12.10
5571;BMP180;2808;51.240;6.794;2024-02-15T01:57:24;101266.00;;;12.10
5571;BMP180;2808;51.240;6.794;2024-02-15T01:59:55;101267.00;;;12.10
5571;BMP180;2808;51.240;6.794;2024-02-15T02:02:24;101271.00;;;12.10
5571;BMP180;2808;51.240;6.794;2024-02-15T02:04:52;101265.00;;;12.10
5571;BMP180;2808;51.240;6.794;2024-02-15T02:07:20;101269.00;;;12.10
5571;BMP180;2808;51.240;6.794;2024-02-15T02:09:49;101269.00;;;12.10
5571;BMP180;2808;51.240;6.794;2024-02-15T02:12:16;101273.00;;;12.10
5571;BMP180;2808;51.240;6.794;2024-02-15T02:14:44;101266.00;;;12.10
5571;BMP180;2808;51.240;6.794;2024-02-15T02:17:12;101266.00;;;12.00
5571;BMP180;2808;51.240;6.794;2024-02-15T02:19:41;101268.00;;;12.00
5571;BMP180;2808;51.240;6.794;2024-02-15T02:22:12;101266.00;;;12.10
5571;BMP180;2808;51.240;6.794;2024-02-15T02:25:00;101260.00;;;12.10
5571;BMP180;2808;51.240;6.794;2024-02-15T02:27:29;101260.00;;;12.10
5571;BMP180;2808;51.240;6.794;2024-02-15T02:29:57;101248.00;;;12.10
5571;BMP180;2808;51.240;6.794;2024-02-15T02:32:25;101250.00;;;12.10
5571;BMP180;2808;51.240;6.794;2024-02-15T02:34:53;101240.00;;;12.10
5571;BMP180;2808;51.240;6.794;2024-02-15T02:37:23;101236.00;;;12.10
5571;BMP180;2808;51.240;6.794;2024-02-15T02:39:50;101236.00;;;12.10
5571;BMP180;2808;51.240;6.794;2024-02-15T02:42:19;101226.00;;;12.10
5571;BMP180;2808;51.240;6.794;2024-02-15T02:44:47;101229.00;;;12.10
5571;BMP180;2808;51.240;6.794;2024-02-15T02:47:13;101233.00;;;12.10
5571;BMP180;2808;51.240;6.794;2024-02-15T02:49:47;101240.00;;;12.10
5571;BMP180;2808;51.240;6.794;2024-02-15T02:52:16;101233.00;;;12.00
5571;BMP180;2808;51.240;6.794;2024-02-15T02:54:44;101233.00;;;12.00
5571;BMP180;2808;51.240;6.794;2024-02-15T02:57:12;101225.00;;;12.00
5571;BMP180;2808;51.240;6.794;2024-02-15T02:59:41;101226.00;;;12.00
5571;BMP180;2808;51.240;6.794;2024-02-15T03:02:08;101229.00;;;12.00
5571;BMP180;2808;51.240;6.794;2024-02-15T03:04:35;101223.00;;;12.00
5571;BMP180;2808;51.240;6.794;2024-02-15T03:07:06;101221.00;;;12.00
5571;BMP180;2808;51.240;6.794;2024-02-15T03:09:33;101216.00;;;12.00
5571;BMP180;2808;51.240;6.794;2024-02-15T03:12:03;101229.00;;;12.00
5571;BMP180;2808;51.240;6.794;2024-02-15T03:14:31;101216.00;;;12.00
5571;BMP180;2808;51.240;6.794;2024-02-15T03:17:02;101212.00;;;12.00
5571;BMP180;2808;51.240;6.794;2024-02-15T03:19:34;101211.00;;;12.00
5571;BMP180;2808;51.240;6.794;2024-02-15T03:22:01;101205.00;;;12.00
5571;BMP180;2808;51.240;6.794;2024-02-15T03:24:29;101207.00;;;11.90
5571;BMP180;2808;51.240;6.794;2024-02-15T03:26:56;101198.00;;;11.90
5571;BMP180;2808;51.240;6.794;2024-02-15T03:29:24;101195.00;;;11.90
5571;BMP180;2808;51.240;6.794;2024-02-15T03:31:57;101186.00;;;11.80
5571;BMP180;2808;51.240;6.794;2024-02-15T03:34:26;101195.00;;;11.80
5571;BMP180;2808;51.240;6.794;2024-02-15T03:36:53;101197.00;;;11.80
5571;BMP180;2808;51.240;6.794;2024-02-15T03:39:21;101198.00;;;11.80
5571;BMP180;2808;51.240;6.794;2024-02-15T03:41:49;101192.00;;;11.80
5571;BMP180;2808;51.240;6.794;2024-02-15T03:44:22;101204.00;;;11.80
5571;BMP180;2808;51.240;6.794;2024-02-15T03:46:55;101194.00;;;11.80
5571;BMP180;2808;51.240;6.794;2024-02-15T03:49:22;101197.00;;;11.80
5571;BMP180;2808;51.240;6.794;2024-02-15T03:51:54;101191.00;;;11.80
5571;BMP180;2808;51.240;6.794;2024-02-15T03:54:22;101196.00;;;11.80
5571;BMP180;2808;51.240;6.794;2024-02-15T03:56:50;101193.00;;;11.80
5571;BMP180;2808;51.240;6.794;2024-02-15T03:59:19;101190.00;;;11.80
5571;BMP180;2808;51.240;6.794;2024-02-15T04:01:51;101196.00;;;11.80
5571;BMP180;2808;51.240;6.794;2024-02-15T04:04:18;101199.00;;;11.70
5571;BMP180;2808;51.240;6.794;2024-02-15T04:06:47;101199.00;;;11.70
5571;BMP180;2808;51.240;6.794;2024-02-15T04:09:15;101202.00;;;11.70
5571;BMP180;2808;51.240;6.794;2024-02-15T04:11:44;101206.00;;;11.70
5571;BMP180;2808;51.240;6.794;2024-02-15T04:14:13;101201.00;;;11.70
5571;BMP180;2808;51.240;6.794;2024-02-15T04:16:40;101204.00;;;11.70
5571;BMP180;2808;51.240;6.794;2024-02-15T04:19:07;101198.00;;;11.70
5571;BMP180;2808;51.240;6.794;2024-02-15T04:21:35;101194.00;;;11.70
5571;BMP180;2808;51.240;6.794;2024-02-15T04:24:03;101199.00;;;11.70
5571;BMP180;2808;51.240;6.794;2024-02-15T04:26:33;101190.00;;;11.70
5571;BMP180;2808;51.240;6.794;2024-02-15T04:29:00;101198.00;;;11.70
5571;BMP180;2808;51.240;6.794;2024-02-15T04:31:27;101192.00;;;11.70
5571;BMP180;2808;51.240;6.794;2024-02-15T04:33:58;101194.00;;;11.70
5571;BMP180;2808;51.240;6.794;2024-02-15T04:36:25;101185.00;;;11.70
5571;BMP180;2808;51.240;6.794;2024-02-15T04:38:53;101205.00;;;11.70
5571;BMP180;2808;51.240;6.794;2024-02-15T04:41:21;101198.00;;;11.80
5571;BMP180;2808;51.240;6.794;2024-02-15T04:43:51;101199.00;;;11.80
5571;BMP180;2808;51.240;6.794;2024-02-15T04:46:18;101201.00;;;11.80
5571;BMP180;2808;51.240;6.794;2024-02-15T04:48:48;101201.00;;;11.80
5571;BMP180;2808;51.240;6.794;2024-02-15T04:51:17;101194.00;;;11.80
5571;BMP180;2808;51.240;6.794;2024-02-15T04:53:49;101189.00;;;11.80
5571;BMP180;2808;51.240;6.794;2024-02-15T04:56:16;101189.00;;;11.80
5571;BMP180;2808;51.240;6.794;2024-02-15T04:58:54;101194.00;;;11.80
5571;BMP180;2808;51.240;6.794;2024-02-15T05:01:21;101187.00;;;11.80
5571;BMP180;2808;51.240;6.794;2024-02-15T05:03:49;101192.00;;;11.80
5571;BMP180;2808;51.240;6.794;2024-02-15T05:06:16;101171.00;;;11.80
5571;BMP180;2808;51.240;6.794;2024-02-15T05:08:43;101173.00;;;11.90
5571;BMP180;2808;51.240;6.794;2024-02-15T05:11:11;101169.00;;;11.90
5571;BMP180;2808;51.240;6.794;2024-02-15T05:13:43;101169.00;;;11.90
5571;BMP180;2808;51.240;6.794;2024-02-15T05:16:12;101167.00;;;11.90
5571;BMP180;2808;51.240;6.794;2024-02-15T05:18:40;101173.00;;;11.90
5571;BMP180;2808;51.240;6.794;2024-02-15T05:21:07;101164.00;;;11.90
5571;BMP180;2808;51.240;6.794;2024-02-15T05:23:36;101167.00;;;11.90
5571;BMP180;2808;51.240;6.794;2024-02-15T05:26:03;101164.00;;;11.80
5571;BMP180;2808;51.240;6.794;2024-02-15T05:28:31;101166.00;;;11.80
5571;BMP180;2808;51.240;6.794;2024-02-15T05:31:13;101164.00;;;11.80
5571;BMP180;2808;51.240;6.794;2024-02-15T05:33:43;101164.00;;;11.80
5571;BMP180;2808;51.240;6.794;2024-02-15T05:36:11;101176.00;;;11.80
5571;BMP180;2808;51.240;6.794;2024-02-15T05:38:39;101175.00;;;11.80
5571;BMP180;2808;51.240;6.794;2024-02-15T05:41:07;101176.00;;;11.80
5571;BMP180;2808;51.240;6.794;2024-02-15T05:43:34;101164.00;;;11.80
5571;BMP180;2808;51.240;6.794;2024-02-15T05:46:02;101165.00;;;11.80
5571;BMP180;2808;51.240;6.794;2024-02-15T05:48:31;101173.00;;;11.80
5571;BMP180;2808;51.240;6.794;2024-02-15T05:51:01;101168.00;;;11.80
5571;BMP180;2808;51.240;6.794;2024-02-15T05:53:29;101156.00;;;11.80
5571;BMP180;2808;51.240;6.794;2024-02-15T05:55:56;101150.00;;;11.80
5571;BMP180;2808;51.240;6.794;2024-02-15T05:58:25;101158.00;;;11.80
5571;BMP180;2808;51.240;6.794;2024-02-15T06:00:52;101154.00;;;11.80
5571;BMP180;2808;51.240;6.794;2024-02-15T06:03:21;101158.00;;;11.80
5571;BMP180;2808;51.240;6.794;2024-02-15T06:05:50;101163.00;;;11.80
5571;BMP180;2808;51.240;6.794;2024-02-15T06:08:18;101159.00;;;11.80
5571;BMP180;2808;51.240;6.794;2024-02-15T06:10:47;101164.00;;;11.80
5571;BMP180;2808;51.240;6.794;2024-02-15T06:13:14;101169.00;;;11.80
5571;BMP180;2808;51.240;6.794;2024-02-15T06:15:42;101162.00;;;11.90
5571;BMP180;2808;51.240;6.794;2024-02-15T06:18:11;101154.00;;;11.90
5571;BMP180;2808;51.240;6.794;2024-02-15T06:20:40;101163.00;;;11.90
5571;BMP180;2808;51.240;6.794;2024-02-15T06:23:10;101162.00;;;12.00
5571;BMP180;2808;51.240;6.794;2024-02-15T06:25:37;101161.00;;;11.90
5571;BMP180;2808;51.240;6.794;2024-02-15T06:28:07;101160.00;;;12.00
5571;BMP180;2808;51.240;6.794;2024-02-15T06:30:45;101156.00;;;11.90
5571;BMP180;2808;51.240;6.794;2024-02-15T06:33:30;101141.00;;;11.90
5571;BMP180;2808;51.240;6.794;2024-02-15T06:36:15;101149.00;;;12.00
5571;BMP180;2808;51.240;6.794;2024-02-15T06:39:04;101148.00;;;12.00
5571;BMP180;2808;51.240;6.794;2024-02-15T06:41:48;101162.00;;;11.90
5571;BMP180;2808;51.240;6.794;2024-02-15T06:44:16;101155.00;;;11.90
5571;BMP180;2808;51.240;6.794;2024-02-15T06:46:43;101163.00;;;11.90
5571;BMP180;2808;51.240;6.794;2024-02-15T06:49:12;101160.00;;;11.90
5571;BMP180;2808;51.240;6.794;2024-02-15T06:51:39;101156.00;;;11.90
5571;BMP180;2808;51.240;6.794;2024-02-15T06:54:09;101164.00;;;11.90
5571;BMP180;2808;51.240;6.794;2024-02-15T06:56:40;101155.00;;;11.90
5571;BMP180;2808;51.240;6.794;2024-02-15T06:59:09;101153.00;;;11.90
5571;BMP180;2808;51.240;6.794;2024-02-15T07:01:40;101159.00;;;11.90
5571;BMP180;2808;51.240;6.794;2024-02-15T07:04:10;101159.00;;;11.90
5571;BMP180;2808;51.240;6.794;2024-02-15T07:06:38;101156.00;;;11.90
5571;BMP180;2808;51.240;6.794;2024-02-15T07:09:06;101162.00;;;11.90
5571;BMP180;2808;51.240;6.794;2024-02-15T07:11:35;101167.00;;;11.90
5571;BMP180;2808;51.240;6.794;2024-02-15T07:14:02;101161.00;;;11.90
5571;BMP180;2808;51.240;6.794;2024-02-15T07:16:33;101148.00;;;11.90
5571;BMP180;2808;51.240;6.794;2024-02-15T07:19:01;101149.00;;;11.90
5571;BMP180;2808;51.240;6.794;2024-02-15T07:21:29;101154.00;;;11.90
5571;BMP180;2808;51.240;6.794;2024-02-15T07:24:01;101158.00;;;11.90
5571;BMP180;2808;51.240;6.794;2024-02-15T07:26:31;101150.00;;;11.90
5571;BMP180;2808;51.240;6.794;2024-02-15T07:29:02;101163.00;;;11.90
5571;BMP180;2808;51.240;6.794;2024-02-15T07:31:32;101163.00;;;12.00
5571;BMP180;2808;51.240;6.794;2024-02-15T07:34:00;101163.00;;;12.00
5571;BMP180;2808;51.240;6.794;2024-02-15T07:36:29;101169.00;;;12.00
5571;BMP180;2808;51.240;6.794;2024-02-15T07:38:57;101156.00;;;12.00
5571;BMP180;2808;51.240;6.794;2024-02-15T07:41:27;101168.00;;;12.00
5571;BMP180;2808;51.240;6.794;2024-02-15T07:43:54;101162.00;;;12.00
5571;BMP180;2808;51.240;6.794;2024-02-15T07:46:25;101166.00;;;12.00
5571;BMP180;2808;51.240;6.794;2024-02-15T07:48:53;101166.00;;;12.00
5571;BMP180;2808;51.240;6.794;2024-02-15T07:51:21;101170.00;;;12.00
5571;BMP180;2808;51.240;6.794;2024-02-15T07:53:49;101161.00;;;12.00
5571;BMP180;2808;51.240;6.794;2024-02-15T07:56:17;101167.00;;;12.00
5571;BMP180;2808;51.240;6.794;2024-02-15T07:58:47;101172.00;;;12.00
5571;BMP180;2808;51.240;6.794;2024-02-15T08:01:16;101183.00;;;12.00
5571;BMP180;2808;51.240;6.794;2024-02-15T08:03:46;101183.00;;;12.00
5571;BMP180;2808;51.240;6.794;2024-02-15T08:06:15;101177.00;;;12.00
5571;BMP180;2808;51.240;6.794;2024-02-15T08:08:47;101171.00;;;12.00
5571;BMP180;2808;51.240;6.794;2024-02-15T08:11:15;101176.00;;;12.00
5571;BMP180;2808;51.240;6.794;2024-02-15T08:13:47;101169.00;;;12.00
5571;BMP180;2808;51.240;6.794;2024-02-15T08:16:16;101164.00;;;12.00
5571;BMP180;2808;51.240;6.794;2024-02-15T08:18:48;101159.00;;;12.00
5571;BMP180;2808;51.240;6.794;2024-02-15T08:21:31;101151.00;;;12.10
5571;BMP180;2808;51.240;6.794;2024-02-15T08:24:01;101162.00;;;12.10
5571;BMP180;2808;51.240;6.794;2024-02-15T08:26:35;101147.00;;;12.10
5571;BMP180;2808;51.240;6.794;2024-02-15T08:29:04;101156.00;;;12.10
5571;BMP180;2808;51.240;6.794;2024-02-15T08:31:32;101153.00;;;12.10
5571;BMP180;2808;51.240;6.794;2024-02-15T08:34:02;101155.00;;;12.10
5571;BMP180;2808;51.240;6.794;2024-02-15T08:36:31;101146.00;;;12.10
5571;BMP180;2808;51.240;6.794;2024-02-15T08:38:59;101145.00;;;12.10
5571;BMP180;2808;51.240;6.794;2024-02-15T08:41:28;101133.00;;;12.20
5571;BMP180;2808;51.240;6.794;2024-02-15T08:43:57;101130.00;;;12.20
5571;BMP180;2808;51.240;6.794;2024-02-15T08:46:27;101134.00;;;12.20
5571;BMP180;2808;51.240;6.794;2024-02-15T08:48:55;101140.00;;;12.20
5571;BMP180;2808;51.240;6.794;2024-02-15T08:51:25;101132.00;;;12.20
5571;BMP180;2808;51.240;6.794;2024-02-15T08:53:56;101126.00;;;12.20
5571;BMP180;2808;51.240;6.794;2024-02-15T08:56:24;101131.00;;;12.20
5571;BMP180;2808;51.240;6.794;2024-02-15T08:58:51;101120.00;;;12.20
5571;BMP180;2808;51.240;6.794;2024-02-15T09:01:19;101111.00;;;12.20
5571;BMP180;2808;51.240;6.794;2024-02-15T09:03:46;101112.00;;;12.30
5571;BMP180;2808;51.240;6.794;2024-02-15T09:06:14;101116.00;;;12.30
5571;BMP180;2808;51.240;6.794;2024-02-15T09:08:43;101114.00;;;12.30
5571;BMP180;2808;51.240;6.794;2024-02-15T09:11:11;101128.00;;;12.30
5571;BMP180;2808;51.240;6.794;2024-02-15T09:13:41;101118.00;;;12.40
5571;BMP180;2808;51.240;6.794;2024-02-15T09:16:15;101116.00;;;12.40
5571;BMP180;2808;51.240;6.794;2024-02-15T09:22:02;101112.00;;;12.40
5571;BMP180;2808;51.240;6.794;2024-02-15T09:24:45;101109.00;;;12.40
5571;BMP180;2808;51.240;6.794;2024-02-15T09:27:15;101112.00;;;12.50
5571;BMP180;2808;51.240;6.794;2024-02-15T09:29:42;101114.00;;;12.50
5571;BMP180;2808;51.240;6.794;2024-02-15T09:32:14;101107.00;;;12.60
5571;BMP180;2808;51.240;6.794;2024-02-15T09:34:42;101112.00;;;12.60
5571;BMP180;2808;51.240;6.794;2024-02-15T09:37:10;101108.00;;;12.70
5571;BMP180;2808;51.240;6.794;2024-02-15T09:39:42;101118.00;;;12.80
5571;BMP180;2808;51.240;6.794;2024-02-15T09:42:09;101109.00;;;12.80
5571;BMP180;2808;51.240;6.794;2024-02-15T09:44:39;101105.00;;;12.80
5571;BMP180;2808;51.240;6.794;2024-02-15T09:47:13;101117.00;;;12.90
5571;BMP180;2808;51.240;6.794;2024-02-15T09:49:44;101117.00;;;12.90
5571;BMP180;2808;51.240;6.794;2024-02-15T09:52:14;101116.00;;;12.90
5571;BMP180;2808;51.240;6.794;2024-02-15T09:54:46;101113.00;;;13.00
5571;BMP180;2808;51.240;6.794;2024-02-15T09:57:14;101110.00;;;13.00
5571;BMP180;2808;51.240;6.794;2024-02-15T09:59:46;101114.00;;;13.10
5571;BMP180;2808;51.240;6.794;2024-02-15T10:02:18;101118.00;;;13.10
5571;BMP180;2808;51.240;6.794;2024-02-15T10:04:50;101117.00;;;13.20
5571;BMP180;2808;51.240;6.794;2024-02-15T10:07:21;101118.00;;;13.20
5571;BMP180;2808;51.240;6.794;2024-02-15T10:09:54;101114.00;;;13.30
5571;BMP180;2808;51.240;6.794;2024-02-15T10:12:37;101122.00;;;13.30
5571;BMP180;2808;51.240;6.794;2024-02-15T10:15:06;101112.00;;;13.30
5571;BMP180;2808;51.240;6.794;2024-02-15T10:17:34;101121.00;;;13.30
5571;BMP180;2808;51.240;6.794;2024-02-15T10:20:06;101122.00;;;13.30
5571;BMP180;2808;51.240;6.794;2024-02-15T10:22:42;101112.00;;;13.30
5571;BMP180;2808;51.240;6.794;2024-02-15T10:25:15;101117.00;;;13.30
5571;BMP180;2808;51.240;6.794;2024-02-15T10:28:01;101111.00;;;13.30
5571;BMP180;2808;51.240;6.794;2024-02-15T10:30:33;101119.00;;;13.30
5571;BMP180;2808;51.240;6.794;2024-02-15T10:33:04;101121.00;;;13.30
5571;BMP180;2808;51.240;6.794;2024-02-15T10:35:32;101106.00;;;13.30
5571;BMP180;2808;51.240;6.794;2024-02-15T10:38:08;101104.00;;;13.30
5571;BMP180;2808;51.240;6.794;2024-02-15T10:40:39;101101.00;;;13.30
5571;BMP180;2808;51.240;6.794;2024-02-15T10:43:10;101105.00;;;13.30
5571;BMP180;2808;51.240;6.794;2024-02-15T10:45:40;101096.00;;;13.30
5571;BMP180;2808;51.240;6.794;2024-02-15T10:51:09;101096.00;;;13.40
5571;BMP180;2808;51.240;6.794;2024-02-15T10:53:44;101084.00;;;13.40
5571;BMP180;2808;51.240;6.794;2024-02-15T10:56:18;101088.00;;;13.50
5571;BMP180;2808;51.240;6.794;2024-02-15T10:58:52;101087.00;;;13.50
5571;BMP180;2808;51.240;6.794;2024-02-15T11:01:23;101081.00;;;13.50
5571;BMP180;2808;51.240;6.794;2024-02-15T11:03:52;101079.00;;;13.60
5571;BMP180;2808;51.240;6.794;2024-02-15T11:06:27;101081.00;;;13.60
5571;BMP180;2808;51.240;6.794;2024-02-15T11:08:56;101072.00;;;13.60
5571;BMP180;2808;51.240;6.794;2024-02-15T11:11:25;101073.00;;;13.60
5571;BMP180;2808;51.240;6.794;2024-02-15T11:14:25;101071.00;;;13.70
5571;BMP180;2808;51.240;6.794;2024-02-15T11:16:56;101058.00;;;13.80
5571;BMP180;2808;51.240;6.794;2024-02-15T11:19:44;101055.00;;;13.80
5571;BMP180;2808;51.240;6.794;2024-02-15T11:22:14;101064.00;;;13.90
5571;BMP180;2808;51.240;6.794;2024-02-15T11:24:51;101058.00;;;14.00
5571;BMP180;2808;51.240;6.794;2024-02-15T11:27:30;101046.00;;;14.00
5571;BMP180;2808;51.240;6.794;2024-02-15T11:30:31;101055.00;;;14.10
5571;BMP180;2808;51.240;6.794;2024-02-15T11:33:29;101049.00;;;14.20
5571;BMP180;2808;51.240;6.794;2024-02-15T11:36:18;101057.00;;;14.30
5571;BMP180;2808;51.240;6.794;2024-02-15T11:46:35;101033.00;;;14.60
5571;BMP180;2808;51.240;6.794;2024-02-15T11:53:12;101030.00;;;14.70
5571;BMP180;2808;51.240;6.794;2024-02-15T11:59:42;101025.00;;;14.90
5571;BMP180;2808;51.240;6.794;2024-02-15T12:06:14;101023.00;;;15.00
5571;BMP180;2808;51.240;6.794;2024-02-15T14:35:13;100866.00;;;15.80
5571;BMP180;2808;51.240;6.794;2024-02-15T14:37:43;100848.00;;;15.80
5571;BMP180;2808;51.240;6.794;2024-02-15T14:40:11;100852.00;;;15.80
5571;BMP180;2808;51.240;6.794;2024-02-15T14:42:46;100852.00;;;15.80
5571;BMP180;2808;51.240;6.794;2024-02-15T14:45:14;100852.00;;;15.80
5571;BMP180;2808;51.240;6.794;2024-02-15T14:47:42;100850.00;;;15.90
5571;BMP180;2808;51.240;6.794;2024-02-15T14:50:11;100836.00;;;15.90
5571;BMP180;2808;51.240;6.794;2024-02-15T14:52:40;100847.00;;;15.90
5571;BMP180;2808;51.240;6.794;2024-02-15T14:55:09;100838.00;;;15.90
5571;BMP180;2808;51.240;6.794;2024-02-15T14:57:36;100826.00;;;15.90
5571;BMP180;2808;51.240;6.794;2024-02-15T15:00:05;100817.00;;;15.90
5571;BMP180;2808;51.240;6.794;2024-02-15T15:02:37;100826.00;;;15.80
5571;BMP180;2808;51.240;6.794;2024-02-15T15:05:05;100825.00;;;15.80
5571;BMP180;2808;51.240;6.794;2024-02-15T15:07:52;100821.00;;;15.80
5571;BMP180;2808;51.240;6.794;2024-02-15T15:10:37;100817.00;;;15.80
5571;BMP180;2808;51.240;6.794;2024-02-15T15:13:22;100821.00;;;15.80
5571;BMP180;2808;51.240;6.794;2024-02-15T15:15:50;100811.00;;;15.80
5571;BMP180;2808;51.240;6.794;2024-02-15T15:18:17;100815.00;;;15.70
5571;BMP180;2808;51.240;6.794;2024-02-15T15:20:45;100806.00;;;15.70
5571;BMP180;2808;51.240;6.794;2024-02-15T15:23:14;100811.00;;;15.60
5571;BMP180;2808;51.240;6.794;2024-02-15T15:25:48;100802.00;;;15.60
5571;BMP180;2808;51.240;6.794;2024-02-15T15:28:16;100795.00;;;15.60
5571;BMP180;2808;51.240;6.794;2024-02-15T15:30:44;100777.00;;;15.60
5571;BMP180;2808;51.240;6.794;2024-02-15T15:33:15;100768.00;;;15.50
5571;BMP180;2808;51.240;6.794;2024-02-15T15:35:45;100795.00;;;15.50
5571;BMP180;2808;51.240;6.794;2024-02-15T15:38:14;100823.00;;;15.50
5571;BMP180;2808;51.240;6.794;2024-02-15T15:40:43;100825.00;;;15.50
5571;BMP180;2808;51.240;6.794;2024-02-15T15:43:12;100813.00;;;15.50
5571;BMP180;2808;51.240;6.794;2024-02-15T15:45:40;100802.00;;;15.50
5571;BMP180;2808;51.240;6.794;2024-02-15T15:48:08;100797.00;;;15.50
5571;BMP180;2808;51.240;6.794;2024-02-15T15:50:35;100798.00;;;15.50
5571;BMP180;2808;51.240;6.794;2024-02-15T15:53:03;100792.00;;;15.40
5571;BMP180;2808;51.240;6.794;2024-02-15T15:55:34;100783.00;;;15.40
5571;BMP180;2808;51.240;6.794;2024-02-15T15:58:05;100786.00;;;15.40
5571;BMP180;2808;51.240;6.794;2024-02-15T16:00:34;100783.00;;;15.40
5571;BMP180;2808;51.240;6.794;2024-02-15T16:03:02;100786.00;;;15.40
5571;BMP180;2808;51.240;6.794;2024-02-15T16:05:31;100785.00;;;15.40
5571;BMP180;2808;51.240;6.794;2024-02-15T16:07:59;100778.00;;;15.40
5571;BMP180;2808;51.240;6.794;2024-02-15T16:10:26;100775.00;;;15.40
5571;BMP180;2808;51.240;6.794;2024-02-15T16:12:57;100783.00;;;15.40
5571;BMP180;2808;51.240;6.794;2024-02-15T16:15:27;100776.00;;;15.40
5571;BMP180;2808;51.240;6.794;2024-02-15T16:17:57;100778.00;;;15.30
5571;BMP180;2808;51.240;6.794;2024-02-15T16:20:26;100781.00;;;15.30
5571;BMP180;2808;51.240;6.794;2024-02-15T16:22:53;100777.00;;;15.30
5571;BMP180;2808;51.240;6.794;2024-02-15T16:29:07;100776.00;;;15.20
5571;BMP180;2808;51.240;6.794;2024-02-15T16:31:35;100778.00;;;15.20
5571;BMP180;2808;51.240;6.794;2024-02-15T16:34:03;100770.00;;;15.10
5571;BMP180;2808;51.240;6.794;2024-02-15T16:36:30;100771.00;;;15.10
5571;BMP180;2808;51.240;6.794;2024-02-15T16:38:58;100765.00;;;15.10
5571;BMP180;2808;51.240;6.794;2024-02-15T16:41:26;100774.00;;;15.10
5571;BMP180;2808;51.240;6.794;2024-02-15T16:43:56;100765.00;;;15.10
5571;BMP180;2808;51.240;6.794;2024-02-15T16:46:25;100768.00;;;15.00
5571;BMP180;2808;51.240;6.794;2024-02-15T16:48:53;100764.00;;;15.00
5571;BMP180;2808;51.240;6.794;2024-02-15T16:51:22;100775.00;;;15.00
5571;BMP180;2808;51.240;6.794;2024-02-15T16:53:53;100759.00;;;15.00
5571;BMP180;2808;51.240;6.794;2024-02-15T16:56:21;100764.00;;;15.00
5571;BMP180;2808;51.240;6.794;2024-02-15T16:58:52;100755.00;;;14.90
5571;BMP180;2808;51.240;6.794;2024-02-15T17:01:19;100756.00;;;14.90
5571;BMP180;2808;51.240;6.794;2024-02-15T17:03:51;100757.00;;;14.90
5571;BMP180;2808;51.240;6.794;2024-02-15T17:06:19;100739.00;;;14.80
5571;BMP180;2808;51.240;6.794;2024-02-15T17:08:47;100729.00;;;14.80
5571;BMP180;2808;51.240;6.794;2024-02-15T17:11:21;100744.00;;;14.80
5571;BMP180;2808;51.240;6.794;2024-02-15T17:13:49;100746.00;;;14.80
5571;BMP180;2808;51.240;6.794;2024-02-15T17:16:17;100744.00;;;14.70
5571;BMP180;2808;51.240;6.794;2024-02-15T17:18:45;100749.00;;;14.70
5571;BMP180;2808;51.240;6.794;2024-02-15T17:21:16;100733.00;;;14.70
5571;BMP180;2808;51.240;6.794;2024-02-15T17:23:44;100736.00;;;14.60
5571;BMP180;2808;51.240;6.794;2024-02-15T17:26:12;100724.00;;;14.60
5571;BMP180;2808;51.240;6.794;2024-02-15T17:28:40;100724.00;;;14.60
5571;BMP180;2808;51.240;6.794;2024-02-15T17:31:08;100720.00;;;14.50
5571;BMP180;2808;51.240;6.794;2024-02-15T17:33:38;100705.00;;;14.50